createdAt,value
2018-06-12T00:00:49.328Z,6.00
2018-06-12T00:03:18.375Z,6.37
2018-06-12T00:05:47.402Z,4.10
2018-06-12T00:08:16.411Z,4.37
2018-06-12T00:10:45.448Z,3.60
2018-06-12T00:13:14.437Z,9.13
2018-06-12T00:15:43.464Z,5.33
2018-06-12T00:18:12.467Z,7.00
2018-06-12T00:20:41.522Z,6.77
2018-06-12T00:23:10.555Z,5.97
2018-06-12T00:25:39.079Z,8.73
2018-06-12T00:28:09.627Z,4.53
2018-06-12T00:30:38.613Z,5.27
2018-06-12T00:33:07.664Z,4.30
2018-06-12T00:35:36.678Z,5.27
2018-06-12T00:38:05.747Z,5.27
2018-06-12T00:40:34.752Z,5.80
2018-06-12T00:43:05.144Z,6.57
2018-06-12T00:45:34.294Z,6.03
2018-06-12T00:48:03.303Z,4.33
2018-06-12T00:50:32.373Z,4.53
2018-06-12T00:53:01.436Z,3.37
2018-06-12T00:55:30.507Z,10.53
2018-06-12T00:57:59.530Z,5.33
2018-06-12T01:00:29.192Z,3.63
2018-06-12T01:02:58.242Z,5.13
2018-06-12T01:05:27.326Z,5.53
2018-06-12T01:07:56.349Z,4.13
2018-06-12T01:10:25.359Z,5.37
2018-06-12T01:12:54.814Z,5.90
2018-06-12T01:15:23.833Z,8.13
2018-06-12T01:17:52.874Z,6.43
2018-06-12T01:20:21.866Z,9.20
2018-06-12T01:22:50.447Z,6.10
2018-06-12T01:25:19.436Z,6.60
2018-06-12T01:27:48.475Z,6.00
2018-06-12T01:30:17.496Z,5.60
2018-06-12T01:32:46.570Z,5.80
2018-06-12T01:35:15.591Z,5.20
2018-06-12T01:37:44.627Z,6.13
2018-06-12T01:40:13.678Z,9.80
2018-06-12T01:42:42.702Z,5.70
2018-06-12T01:45:11.787Z,7.53
2018-06-12T01:47:40.800Z,6.50
2018-06-12T01:50:10.375Z,8.50
2018-06-12T01:52:39.374Z,9.10
2018-06-12T01:55:08.399Z,6.10
2018-06-12T01:57:37.412Z,9.30
2018-06-12T02:00:06.499Z,6.53
2018-06-12T02:02:35.782Z,9.27
2018-06-12T02:05:04.883Z,10.03
2018-06-12T02:07:33.911Z,9.17
2018-06-12T02:10:02.960Z,7.20
2018-06-12T02:12:32.194Z,8.30
2018-06-12T02:15:01.251Z,6.60
2018-06-12T02:17:30.272Z,8.40
2018-06-12T02:19:59.310Z,9.97
2018-06-12T02:22:28.329Z,7.27
2018-06-12T02:24:57.367Z,8.60
2018-06-12T02:27:26.371Z,8.83
2018-06-12T02:29:55.413Z,8.20
2018-06-12T02:32:24.404Z,8.73
2018-06-12T02:34:53.592Z,10.30
2018-06-12T02:37:22.621Z,9.57
2018-06-12T02:39:51.939Z,10.50
2018-06-12T02:42:21.872Z,9.30
2018-06-12T02:44:50.943Z,9.50
2018-06-12T02:47:20.045Z,10.63
2018-06-12T02:49:49.060Z,9.67
2018-06-12T02:52:18.106Z,12.17
2018-06-12T02:54:47.128Z,9.30
2018-06-12T02:57:16.167Z,9.50
2018-06-12T02:59:45.193Z,17.40
2018-06-12T03:02:14.295Z,15.53
2018-06-12T03:04:43.298Z,8.37
2018-06-12T03:07:12.364Z,16.47
2018-06-12T03:09:41.413Z,7.90
2018-06-12T03:12:10.416Z,12.93
2018-06-12T03:14:39.431Z,9.67
2018-06-12T03:17:08.438Z,12.73
2018-06-12T03:19:37.028Z,10.20
2018-06-12T03:22:06.044Z,9.37
2018-06-12T03:24:35.091Z,16.40
2018-06-12T03:27:04.089Z,14.47
2018-06-12T03:29:33.997Z,14.90
2018-06-12T03:32:03.004Z,13.53
2018-06-12T03:34:32.127Z,12.50
2018-06-12T03:37:01.148Z,16.80
2018-06-12T03:39:30.211Z,18.40
2018-06-12T03:41:59.241Z,18.37
2018-06-12T03:44:28.288Z,17.40
2018-06-12T03:46:57.277Z,19.23
2018-06-12T03:49:26.360Z,22.00
2018-06-12T03:51:55.392Z,16.77
2018-06-12T03:54:24.409Z,16.90
2018-06-12T03:56:53.594Z,19.10
2018-06-12T03:59:22.595Z,18.80
2018-06-12T04:01:51.667Z,16.57
2018-06-12T04:04:20.666Z,20.50
2018-06-12T04:06:49.692Z,21.23
2018-06-12T04:09:18.823Z,23.10
2018-06-12T04:11:47.866Z,19.10
2018-06-12T04:14:16.880Z,20.90
2018-06-12T04:16:45.953Z,24.00
2018-06-12T04:19:14.942Z,20.23
2018-06-12T04:21:43.985Z,17.20
2018-06-12T04:24:13.190Z,16.33
2018-06-12T04:26:42.246Z,17.10
2018-06-12T04:29:11.336Z,16.57
2018-06-12T04:31:40.403Z,20.37
2018-06-12T04:34:09.450Z,20.83
2018-06-12T04:36:38.511Z,18.20
2018-06-12T04:39:08.891Z,18.17
2018-06-12T04:41:37.887Z,15.77
2018-06-12T04:44:07.004Z,15.83
2018-06-12T04:46:36.001Z,19.87
2018-06-12T04:49:05.061Z,15.43
2018-06-12T04:51:34.165Z,14.50
2018-06-12T04:54:03.219Z,16.00
2018-06-12T04:56:32.263Z,13.67
2018-06-12T04:59:01.348Z,21.40
2018-06-12T05:01:30.388Z,15.73
2018-06-12T05:04:00.264Z,19.10
2018-06-12T05:06:29.848Z,27.33
2018-06-12T05:08:58.851Z,24.20
2018-06-12T05:11:27.970Z,20.50
2018-06-12T05:13:56.982Z,28.00
2018-06-12T05:16:26.005Z,26.17
2018-06-12T05:18:55.062Z,20.33
2018-06-12T05:21:24.228Z,18.47
2018-06-12T05:23:53.681Z,17.40
2018-06-12T05:26:22.759Z,16.03
2018-06-12T05:28:51.788Z,17.10
2018-06-12T05:31:20.794Z,21.90
2018-06-12T05:33:49.859Z,18.80
2018-06-12T05:36:18.985Z,21.30
2018-06-12T05:38:48.027Z,17.00
2018-06-12T05:41:17.036Z,15.43
2018-06-12T05:43:46.203Z,18.77
2018-06-12T05:46:15.188Z,18.73
2018-06-12T05:48:44.283Z,22.57
2018-06-12T05:51:13.289Z,24.50
2018-06-12T05:53:42.338Z,17.10
2018-06-12T05:56:11.379Z,17.33
2018-06-12T05:58:41.335Z,20.33
2018-06-12T06:01:10.407Z,19.07
2018-06-12T06:03:39.446Z,17.73
2018-06-12T06:06:08.573Z,16.13
2018-06-12T06:08:37.606Z,15.67
2018-06-12T06:11:06.698Z,16.10
2018-06-12T06:13:35.716Z,13.77
2018-06-12T06:16:04.807Z,16.63
2018-06-12T06:18:33.845Z,22.30
2018-06-12T06:21:02.980Z,16.03
2018-06-12T06:23:32.056Z,16.17
2018-06-12T06:26:01.151Z,20.53
2018-06-12T06:28:30.196Z,19.17
2018-06-12T06:30:59.223Z,13.90
2018-06-12T06:33:29.248Z,16.63
2018-06-12T06:35:58.277Z,23.53
2018-06-12T06:38:27.303Z,17.50
2018-06-12T06:40:56.306Z,23.90
2018-06-12T06:43:25.735Z,20.10
2018-06-12T06:45:54.728Z,15.97
2018-06-12T06:48:23.776Z,18.07
2018-06-12T06:50:52.824Z,26.23
2018-06-12T06:53:21.876Z,19.13
2018-06-12T06:55:50.884Z,17.43
2018-06-12T06:58:19.939Z,13.50
2018-06-12T07:00:48.945Z,13.33
2018-06-12T07:03:18.023Z,12.40
2018-06-12T07:05:47.063Z,15.90
2018-06-12T07:08:16.078Z,12.83
2018-06-12T07:10:45.097Z,16.73
2018-06-12T07:13:14.592Z,10.83
2018-06-12T07:15:43.615Z,10.23
2018-06-12T07:18:12.711Z,7.53
2018-06-12T07:21:20.727Z,6.57
2018-06-12T07:23:49.819Z,6.17
2018-06-12T07:26:18.875Z,4.70
2018-06-12T07:28:47.900Z,8.03
2018-06-12T07:31:17.100Z,6.50
2018-06-12T07:33:46.452Z,9.33
2018-06-12T07:36:15.644Z,8.17
2018-06-12T07:38:44.642Z,4.23
2018-06-12T07:41:13.712Z,5.87
2018-06-12T07:43:42.729Z,7.97
2018-06-12T07:46:11.764Z,5.80
2018-06-12T07:48:40.789Z,6.30
2018-06-12T07:51:09.842Z,5.00
2018-06-12T07:53:38.925Z,5.70
2018-06-12T07:56:07.995Z,4.70
2018-06-12T07:58:37.062Z,10.00
2018-06-12T08:01:06.065Z,7.60
2018-06-12T08:03:35.085Z,6.83
2018-06-12T08:06:03.645Z,5.70
2018-06-12T08:08:32.731Z,6.00
2018-06-12T08:11:01.776Z,5.33
2018-06-12T08:13:30.811Z,6.20
2018-06-12T08:15:59.830Z,7.00
2018-06-12T08:18:28.807Z,6.73
2018-06-12T08:20:58.034Z,3.93
2018-06-12T08:23:27.147Z,7.70
2018-06-12T08:25:56.282Z,5.77
2018-06-12T08:28:25.300Z,6.43
2018-06-12T08:30:54.329Z,4.23
2018-06-12T08:33:23.357Z,4.07
2018-06-12T08:35:52.336Z,5.60
2018-06-12T08:38:21.381Z,4.90
2018-06-12T08:40:50.458Z,4.27
2018-06-12T08:43:19.500Z,6.83
2018-06-12T08:45:48.589Z,4.87
2018-06-12T08:48:17.640Z,6.53
2018-06-12T08:50:46.622Z,5.40
2018-06-12T08:53:15.669Z,6.83
2018-06-12T08:55:44.668Z,7.20
2018-06-12T08:58:14.635Z,7.03
2018-06-12T09:00:43.700Z,4.37
2018-06-12T09:03:12.850Z,5.47
2018-06-12T09:05:41.884Z,6.53
2018-06-12T09:08:10.883Z,5.80
2018-06-12T09:10:39.942Z,5.30
2018-06-12T09:13:08.983Z,3.37
2018-06-12T09:15:38.194Z,5.23
2018-06-12T09:18:07.344Z,4.77
2018-06-12T09:20:36.334Z,3.70
2018-06-12T09:23:05.438Z,5.43
2018-06-12T09:25:34.431Z,6.97
2018-06-12T09:28:03.451Z,7.90
2018-06-12T09:30:32.483Z,5.00
2018-06-12T09:33:01.615Z,2.93
2018-06-12T09:35:30.647Z,6.90
2018-06-12T09:37:59.722Z,7.50
2018-06-12T09:40:29.328Z,7.90
2018-06-12T09:42:57.898Z,5.47
2018-06-12T09:45:27.643Z,4.83
2018-06-12T09:47:57.219Z,4.90
2018-06-12T09:50:26.279Z,6.20
2018-06-12T09:52:55.283Z,5.07
2018-06-12T09:55:24.337Z,5.83
2018-06-12T09:57:53.346Z,4.20
2018-06-12T10:00:27.563Z,3.37
2018-06-12T10:02:56.674Z,7.43
2018-06-12T10:05:25.695Z,4.10
2018-06-12T10:07:54.785Z,4.90
2018-06-12T10:10:24.077Z,4.70
2018-06-12T10:12:53.098Z,7.27
2018-06-12T10:15:22.170Z,8.93
2018-06-12T10:17:51.180Z,5.83
2018-06-12T10:20:20.243Z,3.70
2018-06-12T10:22:49.271Z,8.90
2018-06-12T10:25:18.332Z,4.13
2018-06-12T10:27:47.323Z,3.73
2018-06-12T10:30:16.370Z,9.10
2018-06-12T10:32:45.449Z,9.10
2018-06-12T10:35:14.478Z,3.67
2018-06-12T10:37:43.492Z,5.30
2018-06-12T10:40:12.532Z,7.30
2018-06-12T10:42:41.530Z,4.10
2018-06-12T10:45:10.574Z,5.40
2018-06-12T11:44:12.155Z,4.13
2018-06-12T11:46:42.027Z,8.60
2018-06-12T11:49:11.003Z,9.23
2018-06-12T11:51:40.078Z,6.37
2018-06-12T11:54:09.100Z,7.43
2018-06-12T11:56:38.105Z,5.20
2018-06-12T11:59:07.139Z,5.47
2018-06-12T12:01:36.151Z,6.60
2018-06-12T12:04:05.244Z,11.63
2018-06-12T12:06:34.271Z,6.80
2018-06-12T12:09:03.517Z,6.97
2018-06-12T12:11:32.560Z,5.70
2018-06-12T12:14:01.585Z,4.73
2018-06-12T12:16:30.563Z,7.03
2018-06-12T12:18:59.815Z,4.83
2018-06-12T12:21:28.867Z,11.80
2018-06-12T12:23:57.877Z,5.90
2018-06-12T12:26:26.942Z,8.10
2018-06-12T12:28:55.947Z,6.10
2018-06-12T12:31:24.992Z,4.30
2018-06-12T12:33:54.014Z,6.53
2018-06-12T12:36:23.116Z,4.10
2018-06-12T12:38:51.683Z,6.10
2018-06-12T12:41:20.737Z,7.37
2018-06-12T12:43:49.778Z,6.90
2018-06-12T12:46:18.780Z,7.90
2018-06-12T12:48:47.345Z,7.03
2018-06-12T12:51:16.353Z,7.77
2018-06-12T12:53:45.848Z,8.53
2018-06-12T12:56:14.839Z,6.47
2018-06-12T12:58:44.316Z,4.37
2018-06-12T13:01:13.443Z,6.07
2018-06-12T13:03:42.531Z,6.83
2018-06-12T13:06:11.636Z,8.53
2018-06-12T13:08:40.242Z,8.10
2018-06-12T13:11:09.339Z,5.87
2018-06-12T13:13:38.423Z,7.87
2018-06-12T13:16:07.569Z,7.10
2018-06-12T13:18:36.591Z,8.80
2018-06-12T13:21:05.638Z,9.30
2018-06-12T13:23:34.644Z,9.70
2018-06-12T13:26:03.702Z,7.83
2018-06-12T13:28:32.688Z,8.00
2018-06-12T13:31:01.758Z,9.20
2018-06-12T13:33:30.842Z,8.10
2018-06-12T13:35:59.884Z,11.40
2018-06-12T13:38:28.915Z,6.37
2018-06-12T13:40:57.912Z,7.73
2018-06-12T13:43:26.955Z,6.67
2018-06-12T13:45:55.955Z,8.80
2018-06-12T13:48:25.052Z,7.80
2018-06-12T13:50:54.077Z,5.43
2018-06-12T13:53:23.116Z,9.83
2018-06-12T13:55:52.599Z,15.63
2018-06-12T13:58:21.671Z,11.80
2018-06-12T14:00:50.732Z,14.97
2018-06-12T14:03:19.744Z,12.33
2018-06-12T14:05:48.863Z,13.37
2018-06-12T14:08:17.873Z,14.40
2018-06-12T14:10:46.957Z,20.93
2018-06-12T14:13:15.999Z,19.93
2018-06-12T14:15:45.076Z,24.30
2018-06-12T14:18:14.062Z,27.90
2018-06-12T14:20:44.142Z,22.07
2018-06-12T14:23:13.159Z,22.60
2018-06-12T14:25:42.200Z,27.13
2018-06-12T14:28:11.484Z,28.47
2018-06-12T14:30:40.559Z,25.53
2018-06-12T14:33:09.549Z,26.30
2018-06-12T14:35:38.638Z,22.53
2018-06-12T14:38:07.687Z,23.10
2018-06-12T14:40:36.320Z,22.07
2018-06-12T14:43:05.460Z,30.60
2018-06-12T14:45:34.738Z,29.60
2018-06-12T14:48:03.822Z,31.90
2018-06-12T14:50:32.829Z,31.80
2018-06-12T14:53:01.923Z,36.90
2018-06-12T14:55:31.055Z,26.43
2018-06-12T14:58:00.129Z,28.97
2018-06-12T15:00:28.727Z,37.43
2018-06-12T15:02:57.727Z,34.57
2018-06-12T15:05:27.551Z,37.73
2018-06-12T15:07:56.547Z,30.53
2018-06-12T15:10:25.852Z,32.20
2018-06-12T15:12:54.839Z,31.37
2018-06-12T15:15:23.930Z,28.97
2018-06-12T15:17:53.023Z,33.03
2018-06-12T15:20:22.060Z,34.90
2018-06-12T15:22:51.051Z,44.10
2018-06-12T15:25:20.130Z,34.13
2018-06-12T15:27:49.186Z,40.47
2018-06-12T15:30:17.858Z,33.47
2018-06-12T15:32:46.893Z,30.30
2018-06-12T15:35:15.982Z,40.40
2018-06-12T15:37:44.987Z,40.40
2018-06-12T15:40:14.048Z,48.83
2018-06-12T15:42:43.116Z,41.00
2018-06-12T15:45:12.143Z,48.40
2018-06-12T15:47:41.179Z,50.23
2018-06-12T15:50:10.237Z,43.57
2018-06-12T15:52:40.152Z,29.70
2018-06-12T15:55:09.144Z,19.27
2018-06-12T15:57:38.169Z,26.10
2018-06-12T16:00:07.200Z,26.60
2018-06-12T16:02:36.246Z,25.93
2018-06-12T16:05:05.397Z,24.60
2018-06-12T16:07:34.439Z,21.37
2018-06-12T16:10:03.508Z,31.23
2018-06-12T16:12:32.526Z,27.37
2018-06-12T16:15:01.556Z,19.60
2018-06-12T16:17:30.588Z,29.53
2018-06-12T16:19:59.707Z,31.80
2018-06-12T16:22:28.711Z,27.20
2018-06-12T16:24:57.771Z,25.17
2018-06-12T16:27:26.792Z,24.20
2018-06-12T16:29:55.822Z,26.93
2018-06-12T16:32:24.858Z,31.33
2018-06-12T16:34:53.944Z,34.97
2018-06-12T16:37:22.928Z,26.17
2018-06-12T16:39:51.940Z,33.87
2018-06-12T16:42:21.073Z,17.87
2018-06-12T16:44:50.094Z,27.63
2018-06-12T16:47:19.120Z,14.37
2018-06-12T16:49:48.128Z,16.50
2018-06-12T16:52:17.147Z,10.60
2018-06-12T16:54:46.176Z,12.77
2018-06-12T16:57:15.221Z,22.87
2018-06-12T16:59:44.278Z,23.83
2018-06-12T17:02:13.310Z,18.87
2018-06-12T17:04:42.356Z,21.23
2018-06-12T17:07:11.358Z,18.47
2018-06-12T17:09:40.437Z,13.60
2018-06-12T17:12:09.458Z,10.83
2018-06-12T17:14:38.526Z,13.40
2018-06-12T17:17:07.517Z,14.70
2018-06-12T17:19:36.617Z,13.50
2018-06-12T17:22:06.168Z,10.03
2018-06-12T17:24:35.270Z,10.83
2018-06-12T17:27:04.315Z,9.80
2018-06-12T17:29:33.368Z,12.53
2018-06-12T17:32:02.469Z,13.00
2018-06-12T17:34:31.574Z,13.23
2018-06-12T17:37:00.620Z,12.47
2018-06-12T17:39:29.648Z,13.30
2018-06-12T17:41:58.710Z,16.73
2018-06-12T17:44:28.894Z,12.60
2018-06-12T17:46:58.009Z,15.17
2018-06-12T17:49:27.016Z,16.30
2018-06-12T17:51:56.080Z,15.60
2018-06-12T17:54:26.019Z,17.50
2018-06-12T17:56:55.067Z,20.60
2018-06-12T17:59:24.064Z,20.23
2018-06-12T18:01:52.665Z,18.10
2018-06-12T18:04:21.695Z,19.20
2018-06-12T18:06:50.799Z,21.33
2018-06-12T18:09:19.834Z,13.83
2018-06-12T18:11:48.394Z,16.97
2018-06-12T18:14:17.428Z,12.93
2018-06-12T18:16:46.427Z,14.63
2018-06-12T18:19:15.467Z,20.80
2018-06-12T18:21:44.000Z,10.67
2018-06-12T18:24:13.023Z,11.17
2018-06-12T18:26:42.055Z,14.93
2018-06-12T18:29:10.666Z,17.10
2018-06-12T18:31:39.763Z,13.17
2018-06-12T18:34:08.811Z,17.03
2018-06-12T18:36:38.741Z,13.60
2018-06-12T18:39:08.562Z,7.23
2018-06-12T18:41:38.462Z,9.37
2018-06-12T18:44:07.466Z,9.13
2018-06-12T18:46:36.479Z,8.90
2018-06-12T18:49:05.516Z,7.37
2018-06-12T18:51:34.549Z,6.50
2018-06-12T18:54:03.631Z,5.47
2018-06-12T18:56:32.661Z,8.47
2018-06-12T18:59:01.676Z,10.80
2018-06-12T19:01:30.715Z,7.07
2018-06-12T19:03:59.792Z,5.90
2018-06-12T19:06:28.886Z,4.30
2018-06-12T19:08:57.892Z,7.33
2018-06-12T19:11:26.978Z,9.00
2018-06-12T19:13:55.991Z,8.40
2018-06-12T19:16:25.019Z,9.03
2018-06-12T19:18:54.047Z,10.20
2018-06-12T19:21:23.043Z,5.47
2018-06-12T19:23:52.866Z,7.47
2018-06-12T19:26:21.894Z,6.40
2018-06-12T19:28:50.904Z,10.87
2018-06-12T19:31:19.977Z,7.83
2018-06-12T19:33:49.033Z,7.07
2018-06-12T19:36:18.065Z,5.33
2018-06-12T19:38:47.096Z,5.13
2018-06-12T19:41:16.178Z,11.53
2018-06-12T19:43:45.216Z,4.33
2018-06-12T19:46:14.288Z,6.87
2018-06-12T19:48:43.358Z,12.90
2018-06-12T19:51:12.329Z,7.03
2018-06-12T19:53:41.355Z,6.60
2018-06-12T19:56:10.356Z,10.53
2018-06-12T19:58:39.395Z,9.33
2018-06-12T20:01:08.462Z,8.77
2018-06-12T20:03:37.522Z,8.27
2018-06-12T20:06:06.589Z,9.80
2018-06-12T20:08:35.615Z,10.47
2018-06-12T20:11:04.618Z,8.33
2018-06-12T20:13:33.651Z,21.70
2018-06-12T20:16:02.650Z,13.30
2018-06-12T20:18:31.726Z,10.20
2018-06-12T20:21:00.748Z,11.03
2018-06-12T20:23:30.236Z,12.10
2018-06-12T20:25:59.243Z,8.57
2018-06-12T20:28:28.269Z,12.60
2018-06-12T20:30:57.293Z,16.73
2018-06-12T20:33:26.359Z,10.23
2018-06-12T20:35:55.503Z,6.97
2018-06-12T20:38:24.721Z,11.00
2018-06-12T20:40:53.831Z,11.47
2018-06-12T20:43:22.808Z,10.00
2018-06-12T20:45:51.891Z,12.60
2018-06-12T20:48:20.908Z,15.70
2018-06-12T20:50:49.503Z,11.40
2018-06-12T20:53:18.522Z,19.23
2018-06-12T20:55:47.528Z,11.30
2018-06-12T20:58:16.552Z,9.47
2018-06-12T21:00:45.560Z,9.97
2018-06-12T21:03:14.760Z,12.80
2018-06-12T21:05:43.808Z,11.77
2018-06-12T21:08:12.880Z,11.23
2018-06-12T21:10:41.920Z,13.30
2018-06-12T21:13:10.982Z,12.50
2018-06-12T21:15:40.003Z,14.30
2018-06-12T21:18:09.052Z,15.00
2018-06-12T21:20:38.087Z,11.37
2018-06-12T21:23:07.152Z,13.10
2018-06-12T21:25:36.159Z,12.83
2018-06-12T21:28:05.156Z,17.50
2018-06-12T21:30:34.191Z,16.57
2018-06-12T21:33:03.226Z,15.67
2018-06-12T21:35:32.255Z,15.90
2018-06-12T21:38:01.317Z,20.03
2018-06-12T21:40:30.358Z,18.50
2018-06-12T21:42:59.390Z,19.50
2018-06-12T21:45:28.430Z,15.77
2018-06-12T21:47:57.611Z,16.80
2018-06-12T21:50:26.625Z,19.23
2018-06-12T21:52:55.676Z,19.00
2018-06-12T21:55:24.683Z,27.00
2018-06-12T21:57:53.856Z,29.20
2018-06-12T22:00:33.775Z,23.83
2018-06-12T22:03:02.923Z,21.97
2018-06-12T22:05:31.923Z,22.63
2018-06-12T22:08:00.506Z,22.73
2018-06-12T22:10:29.597Z,24.77
2018-06-12T22:12:58.158Z,19.40
2018-06-12T22:15:27.217Z,23.93
2018-06-12T22:17:56.790Z,16.80
2018-06-12T22:20:25.835Z,13.30
2018-06-12T22:22:54.855Z,16.60
2018-06-12T22:25:23.882Z,13.40
2018-06-12T22:27:52.924Z,17.80
2018-06-12T22:30:22.016Z,13.80
2018-06-12T22:32:51.053Z,16.50
2018-06-12T22:35:20.113Z,16.40
2018-06-12T22:37:49.203Z,11.83
2018-06-12T22:40:18.265Z,10.23
2018-06-12T22:42:47.289Z,9.50
2018-06-12T22:45:16.303Z,8.53
2018-06-12T22:47:45.342Z,7.40
2018-06-12T22:50:14.372Z,7.53
2018-06-12T22:52:43.416Z,8.67
2018-06-12T22:55:12.398Z,8.37
2018-06-12T22:57:41.505Z,6.23
2018-06-12T23:00:10.883Z,4.70
2018-06-12T23:02:39.894Z,8.27
2018-06-12T23:05:08.918Z,6.17
2018-06-12T23:07:37.919Z,6.20
2018-06-12T23:10:06.968Z,9.73
2018-06-12T23:12:36.855Z,4.30
2018-06-12T23:15:06.015Z,5.77
2018-06-12T23:17:35.070Z,6.67
2018-06-12T23:20:14.995Z,8.63
2018-06-12T23:22:43.549Z,14.50
2018-06-12T23:25:12.529Z,12.60
2018-06-12T23:27:41.597Z,7.70
2018-06-12T23:30:10.618Z,7.63
2018-06-12T23:32:39.668Z,9.50
2018-06-12T23:35:08.662Z,7.97
2018-06-12T23:37:37.766Z,11.30
2018-06-12T23:40:06.840Z,8.00
2018-06-12T23:42:35.913Z,12.33
2018-06-12T23:45:04.947Z,12.43
2018-06-12T23:47:33.976Z,11.93
2018-06-12T23:50:03.002Z,14.67
2018-06-12T23:52:32.006Z,13.83
2018-06-12T23:55:01.064Z,13.73
2018-06-12T23:57:30.056Z,11.60
2018-06-12T23:59:59.099Z,22.30
